Portada
METAR-TAF:

METAR-TAF

Aeroports :

Minocqua-Woodruff, Wisconsin, Estats Units d'Amèrica

latitud: 45-56N, longitud: 089-44W, altitud: 496 m

Observació

L'informe es va fer fa 26 minuts, a les 18:35 UTC
Vent 8 kt del Sud amb ràfegues de 17 kt, variant entre Sud-Est i Sud/Sud-Oest
Temperatura 27°C
Humitat 45%
Pressió 1013 hPa
Visibilitat: 16.1 km
Cel clar

METAR: KARV 191835Z AUTO 17008G17KT 130V200 10SM CLR 27/14 A2991 RMK AO2 T02650138

Hora: 14:01 (19:01 UTC)


TAF: manca

Observacions i pronòstics meteorològics de més de 4000 aeroports (METAR i TAF).

Les estacions disponibles són els punts grocs i vermells al mapa.

Posi el ratolí al punt desitjat per veure el nom de l'estació.

Feu clic per veure les observacions i els pronòstics meteorològics.

Per canviar el mapa: feu clic els botons verds amb una creu de color negre per apropar; al botó verd amb un guió per allunyar la imatge; o en les fletxes verdes per a mapes adjacents.


METAR-TAF: